Time;durP1;ratioP1;P1;durP2;ratioP2;P2;SDS_P1;SDS_P2;PMS_P1;PMS_P2;Temp;Humidity;BMP_temperature;BMP_pressure;BME280_temperature;BME280_humidity;BME280_pressure;Samples;Min_cycle;Max_cycle;Signal;HPM_P1;HPM_P2
2021/03/16 00:00:51;;;;;;;;;;;20.50;34.60;;;;;;484929;243;1231;-67
2021/03/16 00:02:51;;;;;;;;;;;20.50;34.60;;;;;;484362;243;1405;-66
2021/03/16 00:04:52;;;;;;;;;;;20.60;34.60;;;;;;484529;243;1075;-66
2021/03/16 00:06:53;;;;;;;;;;;20.80;34.30;;;;;;492906;240;1192;-66
2021/03/16 00:08:55;;;;;;;;;;;20.70;34.30;;;;;;504657;236;967;-66
2021/03/16 00:10:56;;;;;;;;;;;20.60;34.30;;;;;;505406;236;1157;-66
2021/03/16 00:12:57;;;;;;;;;;;20.60;34.50;;;;;;504611;236;1162;-66
2021/03/16 00:14:58;;;;;;;;;;;20.70;34.30;;;;;;505546;234;1157;-66
2021/03/16 00:17:00;;;;;;;;;;;20.80;34.20;;;;;;504676;236;2178;-66
2021/03/16 00:19:01;;;;;;;;;;;20.80;34.20;;;;;;505597;236;1021;-66
2021/03/16 00:21:02;;;;;;;;;;;20.80;34.30;;;;;;504500;236;1151;-66
2021/03/16 00:23:04;;;;;;;;;;;20.70;34.30;;;;;;505493;234;1047;-66
2021/03/16 00:25:05;;;;;;;;;;;20.70;34.40;;;;;;504708;236;1030;-66
2021/03/16 00:27:06;;;;;;;;;;;20.80;34.30;;;;;;505502;234;1078;-66
2021/03/16 00:29:07;;;;;;;;;;;20.80;34.20;;;;;;490801;241;1164;-66
2021/03/16 00:31:09;;;;;;;;;;;20.80;34.20;;;;;;488918;244;1421;-66
2021/03/16 00:33:10;;;;;;;;;;;20.90;34.10;;;;;;496107;239;1025;-66
2021/03/16 00:35:11;;;;;;;;;;;21.00;33.90;;;;;;496125;240;977;-66
2021/03/16 00:37:12;;;;;;;;;;;21.00;33.90;;;;;;496044;240;2166;-67
2021/03/16 00:39:14;;;;;;;;;;;20.90;34.10;;;;;;504606;236;1063;-66
2021/03/16 00:41:15;;;;;;;;;;;21.00;34.00;;;;;;505296;236;1372;-66
2021/03/16 00:43:16;;;;;;;;;;;20.90;34.10;;;;;;490557;242;1209;-67
2021/03/16 00:45:18;;;;;;;;;;;21.00;34.10;;;;;;499819;235;1172;-67
2021/03/16 00:47:19;;;;;;;;;;;21.10;33.70;;;;;;500177;235;1134;-67
2021/03/16 00:49:20;;;;;;;;;;;21.10;33.70;;;;;;494898;240;1190;-66
2021/03/16 00:51:22;;;;;;;;;;;21.10;33.60;;;;;;495987;240;1130;-66
2021/03/16 00:53:23;;;;;;;;;;;21.00;33.70;;;;;;496052;240;1130;-67
2021/03/16 00:55:24;;;;;;;;;;;21.00;33.80;;;;;;496092;240;1171;-66
2021/03/16 00:57:26;;;;;;;;;;;21.10;33.70;;;;;;496106;240;2178;-66
2021/03/16 00:59:27;;;;;;;;;;;21.20;33.60;;;;;;496123;240;1197;-66
2021/03/16 01:01:28;;;;;;;;;;;21.20;33.40;;;;;;496068;240;1197;-67
2021/03/16 01:03:29;;;;;;;;;;;21.30;33.30;;;;;;496222;240;1081;-66
2021/03/16 01:05:31;;;;;;;;;;;21.10;33.20;;;;;;496123;240;1042;-66
2021/03/16 01:07:32;;;;;;;;;;;21.10;33.50;;;;;;496117;240;1150;-66
2021/03/16 01:09:33;;;;;;;;;;;21.00;33.80;;;;;;496127;240;1022;-66
2021/03/16 01:11:35;;;;;;;;;;;20.80;34.10;;;;;;496140;240;1136;-66
2021/03/16 01:13:36;;;;;;;;;;;20.70;34.10;;;;;;496169;240;994;-66
2021/03/16 01:15:37;;;;;;;;;;;20.70;34.20;;;;;;496217;240;1165;-67
2021/03/16 01:17:38;;;;;;;;;;;20.70;34.20;;;;;;496049;240;2190;-67
2021/03/16 01:19:40;;;;;;;;;;;20.70;34.20;;;;;;496141;240;996;-67
2021/03/16 01:21:41;;;;;;;;;;;20.60;34.30;;;;;;496141;240;1048;-67
2021/03/16 01:23:42;;;;;;;;;;;20.70;34.20;;;;;;496155;240;1126;-66
2021/03/16 01:25:44;;;;;;;;;;;20.70;34.10;;;;;;496263;240;1048;-66
2021/03/16 01:27:45;;;;;;;;;;;20.80;34.00;;;;;;496112;240;1089;-66
2021/03/16 01:29:46;;;;;;;;;;;20.90;33.90;;;;;;496143;240;1133;-66
2021/03/16 01:31:47;;;;;;;;;;;20.80;33.90;;;;;;496146;240;1088;-67
2021/03/16 01:33:49;;;;;;;;;;;20.80;34.00;;;;;;496162;240;1011;-66
2021/03/16 01:35:50;;;;;;;;;;;20.80;33.90;;;;;;496138;240;1034;-66
2021/03/16 01:37:51;;;;;;;;;;;20.70;34.00;;;;;;496160;240;2130;-66
2021/03/16 01:39:53;;;;;;;;;;;20.70;34.20;;;;;;496137;240;1095;-66
2021/03/16 01:41:54;;;;;;;;;;;20.60;34.20;;;;;;496169;240;1080;-66
2021/03/16 01:43:55;;;;;;;;;;;20.60;34.30;;;;;;496126;240;1077;-66
2021/03/16 01:45:56;;;;;;;;;;;20.60;34.30;;;;;;496107;240;1267;-66
2021/03/16 01:47:58;;;;;;;;;;;20.60;34.30;;;;;;496150;240;964;-66
2021/03/16 01:50:02;;;;;;;;;;;20.50;34.30;;;;;;496282;240;1122;-66
2021/03/16 01:52:02;;;;;;;;;;;20.60;34.30;;;;;;495978;240;1467;-66
2021/03/16 01:54:02;;;;;;;;;;;20.50;34.30;;;;;;495581;240;1450;-67
2021/03/16 01:56:03;;;;;;;;;;;20.60;34.20;;;;;;503593;237;1048;-66
2021/03/16 01:58:04;;;;;;;;;;;20.60;34.20;;;;;;494379;239;2163;-66
2021/03/16 02:00:06;;;;;;;;;;;20.60;34.10;;;;;;503843;236;1050;-66
2021/03/16 02:02:07;;;;;;;;;;;20.60;34.10;;;;;;494322;239;987;-66
2021/03/16 02:04:08;;;;;;;;;;;20.40;34.20;;;;;;503681;236;989;-66
2021/03/16 02:06:10;;;;;;;;;;;20.40;34.20;;;;;;494439;239;1039;-66
2021/03/16 02:08:11;;;;;;;;;;;20.40;34.40;;;;;;503619;236;1085;-66
2021/03/16 02:10:12;;;;;;;;;;;20.30;34.50;;;;;;494221;239;1043;-66
2021/03/16 02:12:13;;;;;;;;;;;20.40;34.40;;;;;;503579;236;1098;-66
2021/03/16 02:14:15;;;;;;;;;;;20.30;34.50;;;;;;494725;239;1241;-66
2021/03/16 02:16:16;;;;;;;;;;;20.20;34.60;;;;;;504565;236;1185;-67
2021/03/16 02:18:17;;;;;;;;;;;20.30;34.60;;;;;;505720;234;2138;-66
2021/03/16 02:20:19;;;;;;;;;;;20.30;34.60;;;;;;505556;236;1050;-66
2021/03/16 02:22:20;;;;;;;;;;;20.30;34.60;;;;;;505336;236;1149;-66
2021/03/16 02:24:21;;;;;;;;;;;20.30;34.60;;;;;;505477;236;983;-67
2021/03/16 02:26:22;;;;;;;;;;;20.30;34.70;;;;;;505387;236;1153;-66
2021/03/16 02:28:24;;;;;;;;;;;20.30;34.70;;;;;;505549;236;1116;-66
2021/03/16 02:30:25;;;;;;;;;;;20.30;34.70;;;;;;505378;235;1240;-66
2021/03/16 02:32:26;;;;;;;;;;;20.30;34.80;;;;;;505490;236;1186;-66
2021/03/16 02:34:27;;;;;;;;;;;20.30;34.80;;;;;;505492;236;1023;-66
2021/03/16 02:36:29;;;;;;;;;;;20.30;34.80;;;;;;505532;236;1097;-66
2021/03/16 02:38:30;;;;;;;;;;;20.40;34.70;;;;;;505506;235;2189;-66
2021/03/16 02:40:31;;;;;;;;;;;20.30;34.70;;;;;;505560;235;1055;-66
2021/03/16 02:42:33;;;;;;;;;;;20.20;34.90;;;;;;505427;236;1071;-67
2021/03/16 02:44:35;;;;;;;;;;;20.20;35.00;;;;;;505400;236;1103;-66
2021/03/16 02:46:36;;;;;;;;;;;20.10;35.00;;;;;;505441;235;1288;-66
2021/03/16 02:48:37;;;;;;;;;;;20.10;35.10;;;;;;502575;237;980;-66
2021/03/16 02:50:38;;;;;;;;;;;20.10;35.20;;;;;;492231;240;991;-67
2021/03/16 02:52:40;;;;;;;;;;;20.10;35.10;;;;;;501506;237;1110;-67
2021/03/16 02:54:41;;;;;;;;;;;20.20;35.10;;;;;;492216;240;1122;-67
2021/03/16 02:56:42;;;;;;;;;;;20.10;35.00;;;;;;501465;237;1042;-66
2021/03/16 02:58:43;;;;;;;;;;;20.10;35.10;;;;;;492163;240;2191;-66
2021/03/16 03:00:45;;;;;;;;;;;20.10;35.10;;;;;;501491;237;1088;-66
2021/03/16 03:02:46;;;;;;;;;;;20.10;35.20;;;;;;492243;240;1187;-66
2021/03/16 03:04:47;;;;;;;;;;;20.10;35.20;;;;;;501503;237;1093;-66
2021/03/16 03:06:48;;;;;;;;;;;20.00;35.30;;;;;;492174;240;1191;-66
2021/03/16 03:08:50;;;;;;;;;;;20.00;35.30;;;;;;501514;237;969;-66
2021/03/16 03:10:51;;;;;;;;;;;20.00;35.10;;;;;;492259;240;1208;-66
2021/03/16 03:12:52;;;;;;;;;;;20.00;35.20;;;;;;501446;237;1105;-66
2021/03/16 03:14:54;;;;;;;;;;;20.00;35.20;;;;;;492247;240;1083;-66
2021/03/16 03:16:57;;;;;;;;;;;20.00;35.30;;;;;;501334;237;1138;-66
2021/03/16 03:18:56;;;;;;;;;;;20.00;35.30;;;;;;492252;240;2164;-66
2021/03/16 03:20:57;;;;;;;;;;;20.00;35.20;;;;;;501452;237;1203;-66
2021/03/16 03:22:59;;;;;;;;;;;20.10;35.20;;;;;;492217;240;1049;-66
2021/03/16 03:25:00;;;;;;;;;;;20.10;35.10;;;;;;501529;237;990;-67
2021/03/16 03:27:01;;;;;;;;;;;20.10;35.10;;;;;;492170;240;994;-66
2021/03/16 03:29:03;;;;;;;;;;;20.00;35.10;;;;;;501609;237;1065;-66
2021/03/16 03:31:04;;;;;;;;;;;20.00;35.20;;;;;;492280;240;1051;-66
2021/03/16 03:33:05;;;;;;;;;;;20.00;35.10;;;;;;501637;237;1113;-66
2021/03/16 03:35:06;;;;;;;;;;;20.10;35.00;;;;;;492212;240;1004;-66
2021/03/16 03:37:08;;;;;;;;;;;20.10;34.80;;;;;;501507;237;1068;-67
2021/03/16 03:39:09;;;;;;;;;;;20.20;34.90;;;;;;492141;240;2188;-67
2021/03/16 03:41:10;;;;;;;;;;;20.30;34.90;;;;;;501525;237;973;-66
2021/03/16 03:43:12;;;;;;;;;;;20.20;34.90;;;;;;492256;240;1115;-67
2021/03/16 03:45:13;;;;;;;;;;;20.30;34.80;;;;;;501548;237;1025;-66
2021/03/16 03:47:14;;;;;;;;;;;20.40;34.70;;;;;;492150;240;1138;-66
2021/03/16 03:49:15;;;;;;;;;;;20.40;34.60;;;;;;501520;237;949;-66
2021/03/16 03:51:17;;;;;;;;;;;20.40;34.60;;;;;;492200;240;1141;-66
2021/03/16 03:53:18;;;;;;;;;;;20.40;34.60;;;;;;501452;237;1035;-66
2021/03/16 03:55:19;;;;;;;;;;;20.60;34.50;;;;;;492243;240;1265;-66
2021/03/16 03:57:21;;;;;;;;;;;20.50;34.50;;;;;;501467;237;1115;-66
2021/03/16 03:59:22;;;;;;;;;;;20.50;34.40;;;;;;492297;240;2137;-66
2021/03/16 04:01:23;;;;;;;;;;;20.50;34.40;;;;;;501392;237;1175;-66
2021/03/16 04:03:24;;;;;;;;;;;20.50;34.40;;;;;;492225;240;1190;-67
2021/03/16 04:05:26;;;;;;;;;;;20.60;34.40;;;;;;501599;237;1170;-66
2021/03/16 04:07:27;;;;;;;;;;;20.50;34.40;;;;;;492216;240;1359;-66
2021/03/16 04:09:28;;;;;;;;;;;20.50;34.40;;;;;;501533;237;964;-66
2021/03/16 04:11:29;;;;;;;;;;;20.50;34.40;;;;;;492150;240;1179;-66
2021/03/16 04:13:31;;;;;;;;;;;20.50;34.40;;;;;;501441;237;1149;-66
2021/03/16 04:15:32;;;;;;;;;;;20.50;34.50;;;;;;492323;240;1249;-66
2021/03/16 04:17:33;;;;;;;;;;;20.50;34.40;;;;;;501505;237;1141;-66
2021/03/16 04:19:35;;;;;;;;;;;20.60;34.10;;;;;;492200;240;2147;-66
2021/03/16 04:21:36;;;;;;;;;;;20.70;33.80;;;;;;501616;237;1029;-66
2021/03/16 04:23:37;;;;;;;;;;;20.80;34.10;;;;;;492386;240;1150;-66
2021/03/16 04:25:38;;;;;;;;;;;20.80;34.00;;;;;;501635;237;1050;-67
2021/03/16 04:27:40;;;;;;;;;;;20.70;34.00;;;;;;492168;240;1084;-66
2021/03/16 04:29:41;;;;;;;;;;;20.80;34.10;;;;;;501502;237;959;-66
2021/03/16 04:31:42;;;;;;;;;;;20.70;34.10;;;;;;492298;240;1063;-66
2021/03/16 04:33:43;;;;;;;;;;;20.90;34.00;;;;;;501421;237;1207;-67
2021/03/16 04:35:45;;;;;;;;;;;20.80;34.00;;;;;;492122;240;1060;-66
2021/03/16 04:37:46;;;;;;;;;;;20.80;33.80;;;;;;501431;237;1054;-67
2021/03/16 04:39:47;;;;;;;;;;;20.80;33.90;;;;;;494735;240;2175;-67
2021/03/16 04:41:49;;;;;;;;;;;20.90;33.80;;;;;;494655;240;1122;-67
2021/03/16 04:43:50;;;;;;;;;;;20.80;33.80;;;;;;495176;240;1069;-66
2021/03/16 04:45:51;;;;;;;;;;;20.80;33.80;;;;;;496095;240;1223;-66
2021/03/16 04:47:52;;;;;;;;;;;20.90;33.90;;;;;;496282;240;1136;-66
2021/03/16 04:49:54;;;;;;;;;;;20.80;33.90;;;;;;496200;240;1028;-67
2021/03/16 04:51:55;;;;;;;;;;;20.80;33.90;;;;;;496064;240;1189;-67
2021/03/16 04:53:56;;;;;;;;;;;20.90;33.90;;;;;;496099;240;1063;-66
2021/03/16 04:55:57;;;;;;;;;;;21.00;33.80;;;;;;496118;240;1328;-67
2021/03/16 04:57:59;;;;;;;;;;;20.90;33.80;;;;;;496103;240;1022;-66
2021/03/16 05:00:00;;;;;;;;;;;21.00;33.70;;;;;;496224;240;2138;-67
2021/03/16 05:02:01;;;;;;;;;;;21.00;33.70;;;;;;496053;240;1075;-67
2021/03/16 05:04:03;;;;;;;;;;;21.00;33.80;;;;;;496113;240;1188;-66
2021/03/16 05:06:04;;;;;;;;;;;21.00;33.60;;;;;;496111;240;1144;-66
2021/03/16 05:08:05;;;;;;;;;;;21.00;33.70;;;;;;496234;240;1062;-66
2021/03/16 05:10:06;;;;;;;;;;;20.90;33.80;;;;;;496303;240;1165;-66
2021/03/16 05:12:08;;;;;;;;;;;20.80;33.90;;;;;;496127;240;1128;-66
2021/03/16 05:14:09;;;;;;;;;;;20.90;34.00;;;;;;496131;240;1080;-66
2021/03/16 05:16:10;;;;;;;;;;;20.90;33.90;;;;;;496104;240;1079;-66
2021/03/16 05:18:12;;;;;;;;;;;21.00;33.90;;;;;;496073;240;1122;-66
2021/03/16 05:20:13;;;;;;;;;;;20.80;33.90;;;;;;495956;240;2118;-66
2021/03/16 05:22:14;;;;;;;;;;;20.90;34.10;;;;;;495986;240;1428;-66
2021/03/16 05:24:15;;;;;;;;;;;20.80;34.20;;;;;;495930;240;1031;-66
2021/03/16 05:26:17;;;;;;;;;;;20.90;33.90;;;;;;495989;240;1074;-66
2021/03/16 05:28:18;;;;;;;;;;;20.90;34.00;;;;;;496051;240;1083;-66
2021/03/16 05:30:19;;;;;;;;;;;20.90;34.00;;;;;;495923;240;1058;-66
2021/03/16 05:32:20;;;;;;;;;;;20.80;34.00;;;;;;495942;240;1130;-66
2021/03/16 05:34:22;;;;;;;;;;;21.30;33.60;;;;;;496048;240;1186;-66
2021/03/16 05:36:23;;;;;;;;;;;21.10;33.70;;;;;;496028;240;1202;-66
2021/03/16 05:38:25;;;;;;;;;;;21.10;33.60;;;;;;495926;240;1122;-66
2021/03/16 05:40:26;;;;;;;;;;;21.10;33.60;;;;;;495889;240;2103;-66
2021/03/16 05:42:28;;;;;;;;;;;21.10;33.70;;;;;;495817;240;1235;-66
2021/03/16 05:44:29;;;;;;;;;;;21.10;33.70;;;;;;495920;240;1151;-66
2021/03/16 05:46:30;;;;;;;;;;;21.10;33.70;;;;;;495909;240;1159;-66
2021/03/16 05:48:31;;;;;;;;;;;21.20;33.60;;;;;;495979;240;1199;-66
2021/03/16 05:50:33;;;;;;;;;;;21.10;33.60;;;;;;495904;240;1093;-66
2021/03/16 05:52:34;;;;;;;;;;;21.10;33.60;;;;;;496019;240;1055;-67
2021/03/16 05:54:35;;;;;;;;;;;21.20;33.50;;;;;;496034;240;1052;-66
2021/03/16 05:56:37;;;;;;;;;;;21.10;33.50;;;;;;495998;240;1147;-66
2021/03/16 05:58:38;;;;;;;;;;;21.10;33.60;;;;;;495882;240;1018;-66
2021/03/16 06:00:39;;;;;;;;;;;21.20;33.40;;;;;;495810;240;2173;-66
2021/03/16 06:02:40;;;;;;;;;;;21.20;33.50;;;;;;495898;240;1056;-66
2021/03/16 06:04:42;;;;;;;;;;;21.10;33.50;;;;;;495910;240;1207;-66
2021/03/16 06:06:43;;;;;;;;;;;21.10;33.40;;;;;;495916;240;1155;-66
2021/03/16 06:08:44;;;;;;;;;;;21.30;33.30;;;;;;495858;240;963;-66
2021/03/16 06:10:45;;;;;;;;;;;21.20;33.00;;;;;;495727;240;1111;-66
2021/03/16 06:12:47;;;;;;;;;;;21.10;33.30;;;;;;495733;240;1055;-66
2021/03/16 06:14:48;;;;;;;;;;;21.20;33.30;;;;;;495713;240;1157;-66
2021/03/16 06:16:49;;;;;;;;;;;21.20;33.40;;;;;;495747;240;1201;-66
2021/03/16 06:18:51;;;;;;;;;;;21.20;33.30;;;;;;495702;240;2230;-66
2021/03/16 06:20:52;;;;;;;;;;;21.30;33.30;;;;;;495744;240;1316;-67
2021/03/16 06:22:53;;;;;;;;;;;21.30;33.30;;;;;;495762;240;1017;-67
2021/03/16 06:24:54;;;;;;;;;;;21.20;33.30;;;;;;495754;240;1095;-66
2021/03/16 06:26:56;;;;;;;;;;;21.20;33.30;;;;;;495759;240;1078;-66
2021/03/16 06:28:57;;;;;;;;;;;21.30;33.20;;;;;;495847;240;1080;-66
2021/03/16 06:30:58;;;;;;;;;;;21.20;33.20;;;;;;495730;240;1049;-67
2021/03/16 06:33:00;;;;;;;;;;;21.30;33.20;;;;;;495843;240;1068;-67
2021/03/16 06:35:01;;;;;;;;;;;21.30;33.30;;;;;;495781;240;1155;-66
2021/03/16 06:37:03;;;;;;;;;;;21.30;33.20;;;;;;495628;240;1145;-66
2021/03/16 06:39:03;;;;;;;;;;;21.30;33.20;;;;;;495632;239;2170;-66
2021/03/16 06:41:05;;;;;;;;;;;21.30;33.20;;;;;;495601;240;1206;-66
2021/03/16 06:43:06;;;;;;;;;;;21.40;33.20;;;;;;495631;240;1108;-66
2021/03/16 06:45:07;;;;;;;;;;;21.40;33.20;;;;;;495472;240;1092;-66
2021/03/16 06:47:08;;;;;;;;;;;21.30;33.20;;;;;;495647;240;1088;-67
2021/03/16 06:49:10;;;;;;;;;;;21.40;33.20;;;;;;495330;240;1343;-66
2021/03/16 06:51:11;;;;;;;;;;;21.40;33.10;;;;;;496614;239;1141;-66
2021/03/16 06:53:12;;;;;;;;;;;21.40;33.20;;;;;;494592;240;1095;-66
2021/03/16 06:55:14;;;;;;;;;;;21.50;33.00;;;;;;504184;236;1317;-66
2021/03/16 06:57:15;;;;;;;;;;;21.30;33.20;;;;;;505015;234;1133;-66
2021/03/16 06:59:16;;;;;;;;;;;21.30;33.30;;;;;;504029;236;2185;-66
2021/03/16 07:01:17;;;;;;;;;;;21.20;33.30;;;;;;504970;234;1270;-66
2021/03/16 07:03:19;;;;;;;;;;;21.10;33.50;;;;;;503991;236;1124;-66
2021/03/16 07:05:20;;;;;;;;;;;21.10;33.50;;;;;;504786;235;1174;-67
2021/03/16 07:07:21;;;;;;;;;;;21.10;33.40;;;;;;503862;236;1053;-66
2021/03/16 07:09:23;;;;;;;;;;;21.10;33.50;;;;;;504892;236;1069;-66
2021/03/16 07:11:25;;;;;;;;;;;21.00;33.40;;;;;;490160;242;1453;-66
2021/03/16 07:13:25;;;;;;;;;;;21.10;33.40;;;;;;493648;240;1388;-66
2021/03/16 07:15:27;;;;;;;;;;;21.00;33.40;;;;;;503931;236;1178;-66
2021/03/16 07:17:28;;;;;;;;;;;21.10;33.40;;;;;;504914;235;1183;-66
2021/03/16 07:19:29;;;;;;;;;;;21.00;33.50;;;;;;504749;236;2181;-66
2021/03/16 07:21:30;;;;;;;;;;;21.00;33.50;;;;;;504696;236;1322;-67
2021/03/16 07:23:32;;;;;;;;;;;21.00;33.50;;;;;;504681;235;1078;-66
2021/03/16 07:25:33;;;;;;;;;;;21.20;33.30;;;;;;504683;235;1296;-66
2021/03/16 07:27:34;;;;;;;;;;;21.10;33.50;;;;;;504761;236;1290;-66
2021/03/16 07:29:35;;;;;;;;;;;21.00;33.50;;;;;;504807;235;1124;-67
2021/03/16 07:31:37;;;;;;;;;;;21.00;33.50;;;;;;504626;235;1118;-66
2021/03/16 07:33:38;;;;;;;;;;;21.00;33.50;;;;;;504684;235;1035;-67
2021/03/16 07:35:39;;;;;;;;;;;21.30;33.10;;;;;;504613;236;1157;-67
2021/03/16 07:37:40;;;;;;;;;;;21.20;33.20;;;;;;504666;236;1077;-66
2021/03/16 07:39:42;;;;;;;;;;;21.10;33.30;;;;;;504822;235;2177;-66
2021/03/16 07:41:43;;;;;;;;;;;21.00;33.50;;;;;;504804;236;1145;-67
2021/03/16 07:43:45;;;;;;;;;;;21.00;33.50;;;;;;504851;235;1102;-67
2021/03/16 07:45:46;;;;;;;;;;;21.00;33.60;;;;;;504463;236;1237;-67
2021/03/16 07:47:47;;;;;;;;;;;20.90;33.70;;;;;;504734;235;1074;-67
2021/03/16 07:49:48;;;;;;;;;;;21.00;33.70;;;;;;504470;235;1276;-67
2021/03/16 07:51:50;;;;;;;;;;;21.00;33.70;;;;;;504452;236;1093;-67
2021/03/16 07:53:51;;;;;;;;;;;21.00;33.60;;;;;;504727;235;1174;-67
2021/03/16 07:55:52;;;;;;;;;;;21.00;33.60;;;;;;504746;235;1131;-67
2021/03/16 07:57:54;;;;;;;;;;;21.00;33.70;;;;;;504850;235;1074;-67
2021/03/16 07:59:55;;;;;;;;;;;20.90;33.80;;;;;;504354;235;2138;-66
2021/03/16 08:01:56;;;;;;;;;;;21.00;33.60;;;;;;496463;237;1093;-67
2021/03/16 08:03:57;;;;;;;;;;;21.00;33.40;;;;;;493598;239;1047;-66
2021/03/16 08:05:59;;;;;;;;;;;21.00;33.80;;;;;;503374;236;1176;-66
2021/03/16 08:08:00;;;;;;;;;;;21.00;33.90;;;;;;504670;236;1123;-67
2021/03/16 08:10:01;;;;;;;;;;;21.00;34.00;;;;;;504567;235;1087;-66
2021/03/16 08:12:03;;;;;;;;;;;21.00;34.10;;;;;;504527;235;1161;-66
2021/03/16 08:14:04;;;;;;;;;;;21.00;34.00;;;;;;504552;235;1069;-66
2021/03/16 08:16:06;;;;;;;;;;;21.00;34.00;;;;;;504630;235;1178;-66
2021/03/16 08:18:07;;;;;;;;;;;21.00;34.00;;;;;;504611;235;1105;-67
2021/03/16 08:20:08;;;;;;;;;;;21.00;34.00;;;;;;504677;235;2177;-67
2021/03/16 08:22:10;;;;;;;;;;;21.00;34.00;;;;;;504440;236;1201;-67
2021/03/16 08:24:11;;;;;;;;;;;21.10;34.00;;;;;;504514;236;1113;-67
2021/03/16 08:26:12;;;;;;;;;;;21.00;34.00;;;;;;504572;235;1279;-67
2021/03/16 08:28:13;;;;;;;;;;;21.00;34.00;;;;;;504980;236;906;-67
2021/03/16 08:30:15;;;;;;;;;;;21.00;34.00;;;;;;504877;236;922;-67
2021/03/16 08:32:16;;;;;;;;;;;21.00;34.00;;;;;;504918;235;990;-67
2021/03/16 08:34:17;;;;;;;;;;;21.00;34.00;;;;;;504934;236;882;-67
2021/03/16 08:36:19;;;;;;;;;;;21.00;34.00;;;;;;505230;231;1218;-67
2021/03/16 08:38:20;;;;;;;;;;;20.90;34.00;;;;;;502494;237;1149;-67
2021/03/16 08:40:21;;;;;;;;;;;20.90;34.00;;;;;;491681;240;2188;-67
2021/03/16 08:42:22;;;;;;;;;;;20.90;34.10;;;;;;500689;237;1112;-66
2021/03/16 08:44:24;;;;;;;;;;;20.90;34.00;;;;;;491038;240;1461;-66
2021/03/16 08:46:25;;;;;;;;;;;20.90;33.90;;;;;;500335;237;1290;-67
2021/03/16 08:48:26;;;;;;;;;;;20.90;34.00;;;;;;491127;240;1123;-67
2021/03/16 08:50:27;;;;;;;;;;;20.90;33.90;;;;;;500474;237;1080;-66
2021/03/16 08:52:29;;;;;;;;;;;20.90;33.90;;;;;;491627;240;1317;-67
2021/03/16 08:54:30;;;;;;;;;;;20.90;33.90;;;;;;500644;237;1125;-66
2021/03/16 08:56:32;;;;;;;;;;;20.90;33.70;;;;;;491187;240;1264;-67
2021/03/16 08:58:33;;;;;;;;;;;20.90;33.80;;;;;;501370;237;1025;-67
2021/03/16 09:00:34;;;;;;;;;;;20.90;33.80;;;;;;492135;240;2195;-67
2021/03/16 09:02:36;;;;;;;;;;;20.90;33.80;;;;;;500927;237;1117;-67
2021/03/16 09:04:36;;;;;;;;;;;20.90;33.80;;;;;;491586;240;1293;-67
2021/03/16 09:06:38;;;;;;;;;;;20.80;33.80;;;;;;500833;237;1257;-67
2021/03/16 09:08:39;;;;;;;;;;;20.90;33.80;;;;;;491628;240;1042;-67
2021/03/16 09:10:40;;;;;;;;;;;20.90;33.80;;;;;;500305;237;1259;-67
2021/03/16 09:12:42;;;;;;;;;;;20.90;33.80;;;;;;491185;240;1110;-67
2021/03/16 09:14:43;;;;;;;;;;;20.90;33.70;;;;;;500397;237;1033;-67
2021/03/16 09:16:44;;;;;;;;;;;20.90;33.80;;;;;;490953;240;1607;-67
2021/03/16 09:18:45;;;;;;;;;;;20.90;33.70;;;;;;500351;237;1105;-66
2021/03/16 09:20:47;;;;;;;;;;;20.90;33.70;;;;;;490930;240;2204;-66
2021/03/16 09:22:51;;;;;;;;;;;20.90;33.70;;;;;;500839;237;1317;-67
2021/03/16 09:24:50;;;;;;;;;;;21.00;33.70;;;;;;492054;240;1264;-67
2021/03/16 09:26:50;;;;;;;;;;;21.00;33.60;;;;;;500489;237;1162;-67
2021/03/16 09:28:52;;;;;;;;;;;21.00;33.70;;;;;;491277;240;828;-67
2021/03/16 09:30:53;;;;;;;;;;;20.90;33.70;;;;;;501078;235;1319;-67
2021/03/16 09:32:54;;;;;;;;;;;20.90;33.70;;;;;;494091;240;1091;-67
2021/03/16 09:34:55;;;;;;;;;;;21.10;33.70;;;;;;495532;240;888;-67
2021/03/16 09:36:57;;;;;;;;;;;21.00;33.60;;;;;;495803;240;1065;-67
2021/03/16 09:38:58;;;;;;;;;;;21.10;33.70;;;;;;495567;240;875;-66
2021/03/16 09:40:59;;;;;;;;;;;21.00;33.60;;;;;;496044;240;2194;-67
2021/03/16 09:43:01;;;;;;;;;;;20.90;33.80;;;;;;496028;240;1293;-67
2021/03/16 09:45:03;;;;;;;;;;;20.90;33.90;;;;;;496016;240;943;-67
2021/03/16 09:47:03;;;;;;;;;;;20.80;33.70;;;;;;495743;240;1229;-67
2021/03/16 09:49:04;;;;;;;;;;;20.80;34.00;;;;;;495525;240;847;-67
2021/03/16 09:51:06;;;;;;;;;;;20.80;34.10;;;;;;496013;240;1091;-67
2021/03/16 09:53:07;;;;;;;;;;;20.80;34.20;;;;;;495553;240;1058;-67
2021/03/16 09:55:08;;;;;;;;;;;20.90;34.10;;;;;;495490;240;928;-67
2021/03/16 09:57:10;;;;;;;;;;;20.80;34.10;;;;;;495701;240;1212;-67
2021/03/16 09:59:11;;;;;;;;;;;20.70;34.10;;;;;;494935;240;1146;-67
2021/03/16 10:01:12;;;;;;;;;;;20.80;34.10;;;;;;494856;240;2181;-67
2021/03/16 10:03:13;;;;;;;;;;;20.80;34.10;;;;;;495142;240;1274;-67
2021/03/16 10:05:15;;;;;;;;;;;20.70;34.00;;;;;;495113;240;1085;-67
2021/03/16 10:07:16;;;;;;;;;;;20.70;34.10;;;;;;495108;240;1163;-67
2021/03/16 10:09:17;;;;;;;;;;;20.70;34.00;;;;;;495030;240;1086;-67
2021/03/16 10:11:19;;;;;;;;;;;20.70;34.00;;;;;;495050;240;1266;-66
2021/03/16 10:13:20;;;;;;;;;;;20.60;34.10;;;;;;495102;240;1470;-67
2021/03/16 10:15:21;;;;;;;;;;;20.70;34.10;;;;;;495126;240;1157;-67
2021/03/16 10:17:23;;;;;;;;;;;20.60;34.10;;;;;;495051;239;1360;-67
2021/03/16 10:19:24;;;;;;;;;;;20.60;33.80;;;;;;496088;240;915;-67
2021/03/16 10:21:25;;;;;;;;;;;20.70;33.60;;;;;;495262;240;2170;-67
2021/03/16 10:23:27;;;;;;;;;;;20.60;33.90;;;;;;495297;240;1257;-67
2021/03/16 10:25:28;;;;;;;;;;;20.80;34.00;;;;;;494942;240;1073;-67
2021/03/16 10:27:29;;;;;;;;;;;20.70;34.10;;;;;;495354;239;1220;-67
2021/03/16 10:29:30;;;;;;;;;;;20.80;34.00;;;;;;495617;240;842;-67
2021/03/16 10:31:32;;;;;;;;;;;20.80;33.90;;;;;;495596;240;1183;-67
2021/03/16 10:33:33;;;;;;;;;;;20.80;34.00;;;;;;495601;239;1408;-67
2021/03/16 10:35:34;;;;;;;;;;;20.80;33.80;;;;;;495314;240;1204;-67
2021/03/16 10:37:35;;;;;;;;;;;20.80;33.80;;;;;;495741;240;1172;-67
2021/03/16 10:39:37;;;;;;;;;;;20.90;34.30;;;;;;495287;240;862;-67
2021/03/16 10:41:38;;;;;;;;;;;21.00;34.40;;;;;;495337;240;2186;-67
2021/03/16 10:43:39;;;;;;;;;;;21.00;34.60;;;;;;496019;239;925;-67
2021/03/16 10:45:40;;;;;;;;;;;21.00;34.80;;;;;;495578;240;1174;-66
2021/03/16 10:47:42;;;;;;;;;;;21.00;35.00;;;;;;495591;240;1020;-67
2021/03/16 10:49:43;;;;;;;;;;;21.10;35.30;;;;;;495395;240;822;-67
2021/03/16 10:51:44;;;;;;;;;;;21.00;35.40;;;;;;495879;240;1178;-67
2021/03/16 10:53:46;;;;;;;;;;;21.00;35.70;;;;;;495298;240;1124;-66
2021/03/16 10:55:47;;;;;;;;;;;21.10;35.70;;;;;;495802;240;1192;-67
2021/03/16 10:57:48;;;;;;;;;;;21.00;36.00;;;;;;495481;240;919;-67
2021/03/16 10:59:49;;;;;;;;;;;21.00;36.30;;;;;;495271;240;914;-67
2021/03/16 11:01:51;;;;;;;;;;;21.00;36.40;;;;;;495303;240;2178;-67
2021/03/16 11:03:52;;;;;;;;;;;21.00;36.50;;;;;;495312;240;829;-67
2021/03/16 11:05:53;;;;;;;;;;;21.00;36.60;;;;;;495661;240;1072;-67
2021/03/16 11:07:54;;;;;;;;;;;21.00;36.80;;;;;;495039;240;1070;-67
2021/03/16 11:09:56;;;;;;;;;;;21.00;36.30;;;;;;495165;240;928;-67
2021/03/16 11:11:57;;;;;;;;;;;21.00;37.00;;;;;;495265;240;882;-67
2021/03/16 11:13:58;;;;;;;;;;;21.00;37.10;;;;;;495318;240;1271;-67
2021/03/16 11:16:00;;;;;;;;;;;21.10;37.30;;;;;;495701;240;867;-67
2021/03/16 11:18:01;;;;;;;;;;;21.10;37.20;;;;;;495421;240;876;-67
2021/03/16 11:20:02;;;;;;;;;;;21.10;37.30;;;;;;495988;240;1208;-67
2021/03/16 11:22:04;;;;;;;;;;;21.10;37.40;;;;;;495784;240;2181;-67
2021/03/16 11:24:05;;;;;;;;;;;21.10;37.40;;;;;;495118;240;1181;-67
2021/03/16 11:26:06;;;;;;;;;;;21.20;37.30;;;;;;495035;240;1176;-67
2021/03/16 11:28:08;;;;;;;;;;;21.20;37.40;;;;;;495123;240;1083;-67
2021/03/16 11:30:09;;;;;;;;;;;21.20;37.50;;;;;;494964;240;1101;-67
2021/03/16 11:32:10;;;;;;;;;;;21.20;37.60;;;;;;494910;240;1287;-67
2021/03/16 11:34:11;;;;;;;;;;;21.30;37.40;;;;;;494966;240;1251;-67
2021/03/16 11:36:14;;;;;;;;;;;21.60;37.00;;;;;;494720;240;1403;-66
2021/03/16 11:38:14;;;;;;;;;;;21.50;37.00;;;;;;494891;240;2424;-67
2021/03/16 11:40:15;;;;;;;;;;;21.60;36.90;;;;;;495074;240;1157;-67
2021/03/16 11:42:17;;;;;;;;;;;21.50;37.20;;;;;;495131;240;2127;-67
2021/03/16 11:44:18;;;;;;;;;;;21.50;37.40;;;;;;495022;240;1083;-67
2021/03/16 11:46:20;;;;;;;;;;;21.40;36.80;;;;;;495104;240;1154;-67
2021/03/16 11:48:21;;;;;;;;;;;21.40;37.50;;;;;;495054;240;1086;-67
2021/03/16 11:50:22;;;;;;;;;;;21.50;37.50;;;;;;494791;240;1146;-67
2021/03/16 11:52:24;;;;;;;;;;;21.50;37.60;;;;;;494907;240;1141;-67
2021/03/16 11:54:25;;;;;;;;;;;21.60;37.40;;;;;;494858;240;1183;-67
2021/03/16 11:56:26;;;;;;;;;;;21.70;37.30;;;;;;495001;240;1050;-67